createdAt,value
2023-03-08T00:01:23.573Z,19.49
2023-03-08T00:03:54.270Z,19.58
2023-03-08T00:06:23.121Z,19.56
2023-03-08T00:08:54.179Z,19.56
2023-03-08T00:11:22.162Z,19.55
2023-03-08T00:13:50.037Z,19.42
2023-03-08T00:16:18.011Z,19.52
2023-03-08T00:18:45.924Z,19.50
2023-03-08T00:21:18.689Z,19.28
2023-03-08T00:23:47.306Z,19.51
2023-03-08T00:26:15.315Z,19.44
2023-03-08T00:28:43.425Z,19.20
2023-03-08T00:31:13.614Z,18.90
2023-03-08T00:33:42.359Z,19.46
2023-03-08T00:36:18.267Z,19.30
2023-03-08T00:38:48.153Z,19.07
2023-03-08T00:41:15.981Z,19.29
2023-03-08T00:43:43.950Z,19.14
2023-03-08T00:46:12.772Z,19.44
2023-03-08T00:48:40.959Z,19.31
2023-03-08T00:51:12.301Z,19.42
2023-03-08T00:53:40.134Z,19.32
2023-03-08T00:56:07.971Z,19.40
2023-03-08T00:58:38.515Z,19.41
2023-03-08T01:01:07.603Z,19.08
2023-03-08T01:03:36.016Z,19.40
2023-03-08T01:06:13.778Z,19.41
2023-03-08T01:08:42.800Z,19.41
2023-03-08T01:11:20.206Z,19.42
2023-03-08T01:13:49.235Z,19.29
2023-03-08T01:16:20.432Z,19.26
2023-03-08T01:18:48.615Z,19.36
2023-03-08T01:21:16.923Z,18.41
2023-03-08T01:23:44.820Z,19.24
2023-03-08T01:26:15.614Z,19.36
2023-03-08T01:28:43.715Z,19.37
2023-03-08T01:31:13.173Z,19.24
2023-03-08T01:33:43.373Z,19.35
2023-03-08T01:36:15.530Z,19.23
2023-03-08T01:38:47.833Z,19.33
2023-03-08T01:41:31.153Z,19.30
2023-03-08T01:43:59.283Z,19.09
2023-03-08T01:46:32.402Z,19.17
2023-03-08T01:49:22.927Z,19.23
2023-03-08T01:52:03.908Z,19.09
2023-03-08T01:54:38.702Z,19.21
2023-03-08T01:57:16.022Z,18.95
2023-03-08T01:59:45.098Z,18.82
2023-03-08T02:02:13.465Z,18.98
2023-03-08T02:04:41.521Z,18.92
2023-03-08T02:07:12.990Z,18.92
2023-03-08T02:09:42.695Z,18.98
2023-03-08T02:12:13.950Z,17.80
2023-03-08T02:14:44.073Z,18.96
2023-03-08T02:17:12.737Z,19.08
2023-03-08T02:19:54.055Z,19.19
2023-03-08T02:22:22.421Z,18.94
2023-03-08T02:24:50.236Z,19.21
2023-03-08T02:27:23.887Z,18.83
2023-03-08T02:29:52.706Z,19.19
2023-03-08T02:32:20.823Z,19.14
2023-03-08T02:34:48.592Z,19.01
2023-03-08T02:37:17.877Z,19.03
2023-03-08T02:39:48.603Z,19.19
2023-03-08T02:42:16.377Z,19.16
2023-03-08T02:44:44.111Z,19.16
2023-03-08T02:47:12.399Z,19.16
2023-03-08T02:49:40.331Z,19.03
2023-03-08T02:52:09.902Z,18.99
2023-03-08T02:54:37.577Z,19.10
2023-03-08T02:57:05.384Z,19.03
2023-03-08T02:59:33.091Z,19.18
2023-03-08T03:02:00.971Z,19.10
2023-03-08T03:04:34.141Z,18.94
2023-03-08T03:07:02.085Z,18.80
2023-03-08T03:09:32.228Z,19.22
2023-03-08T03:11:59.894Z,18.76
2023-03-08T03:14:29.276Z,19.09
2023-03-08T03:16:59.052Z,19.22
2023-03-08T03:19:26.880Z,19.22
2023-03-08T03:21:54.681Z,19.19
2023-03-08T03:24:22.552Z,19.05
2023-03-08T03:26:54.886Z,19.00
2023-03-08T03:29:25.343Z,19.10
2023-03-08T03:31:59.316Z,18.65
2023-03-08T03:34:27.126Z,19.18
2023-03-08T03:36:55.068Z,18.76
2023-03-08T03:39:26.609Z,18.85
2023-03-08T03:41:55.519Z,19.05
2023-03-08T03:44:23.393Z,19.12
2023-03-08T03:46:51.311Z,18.47
2023-03-08T03:49:24.403Z,19.02
2023-03-08T03:51:52.805Z,18.68
2023-03-08T03:54:25.931Z,19.14
2023-03-08T03:56:58.488Z,19.02
2023-03-08T03:59:29.056Z,19.11
2023-03-08T04:01:57.382Z,18.91
2023-03-08T04:04:33.653Z,18.95
2023-03-08T04:07:02.490Z,18.88
2023-03-08T04:09:36.134Z,19.10
2023-03-08T04:12:09.065Z,18.78
2023-03-08T04:14:39.827Z,18.73
2023-03-08T04:17:09.346Z,19.11
2023-03-08T04:19:45.029Z,19.15
2023-03-08T04:22:14.356Z,19.17
2023-03-08T04:24:48.269Z,19.16
2023-03-08T04:27:25.066Z,19.14
2023-03-08T04:29:53.564Z,19.16
2023-03-08T04:32:22.357Z,19.04
2023-03-08T04:34:54.865Z,19.10
2023-03-08T04:37:26.608Z,18.99
2023-03-08T04:39:58.896Z,19.14
2023-03-08T04:42:26.666Z,18.94
2023-03-08T04:44:55.974Z,18.89
2023-03-08T04:47:25.143Z,19.16
2023-03-08T04:49:52.919Z,19.17
2023-03-08T04:52:20.935Z,19.08
2023-03-08T04:54:49.474Z,19.08
2023-03-08T04:57:21.683Z,19.02
2023-03-08T04:59:51.823Z,19.20
2023-03-08T05:02:23.717Z,18.71
2023-03-08T05:04:52.358Z,18.97
2023-03-08T05:07:21.194Z,19.13
2023-03-08T05:09:51.192Z,18.91
2023-03-08T05:12:19.068Z,19.14
2023-03-08T05:14:53.202Z,18.95
2023-03-08T05:17:22.193Z,18.84
2023-03-08T05:19:50.682Z,18.97
2023-03-08T05:22:23.178Z,18.72
2023-03-08T05:24:53.259Z,18.92
2023-03-08T05:27:21.760Z,18.68
2023-03-08T05:29:52.065Z,18.98
2023-03-08T05:32:20.843Z,18.92
2023-03-08T05:34:50.676Z,19.15
2023-03-08T05:37:27.407Z,19.09
2023-03-08T05:39:57.225Z,18.88
2023-03-08T05:42:31.546Z,18.96
2023-03-08T05:44:59.813Z,19.11
2023-03-08T05:47:31.650Z,19.06
2023-03-08T05:50:00.373Z,19.00
2023-03-08T05:52:34.505Z,18.91
2023-03-08T05:55:02.706Z,18.95
2023-03-08T05:57:30.557Z,18.75
2023-03-08T06:00:00.032Z,18.76
2023-03-08T06:02:29.568Z,18.81
2023-03-08T06:04:57.449Z,18.98
2023-03-08T06:07:27.318Z,18.67
2023-03-08T06:10:06.231Z,19.07
2023-03-08T06:12:34.255Z,19.11
2023-03-08T06:15:05.862Z,19.12
2023-03-08T06:17:36.621Z,19.07
2023-03-08T06:20:04.667Z,19.17
2023-03-08T06:22:35.295Z,19.32
2023-03-08T06:25:04.493Z,19.52
2023-03-08T06:27:35.676Z,19.39
2023-03-08T06:30:09.489Z,19.53
2023-03-08T06:32:38.051Z,19.54
2023-03-08T06:35:07.735Z,19.69
2023-03-08T06:37:39.492Z,19.60
2023-03-08T06:40:10.103Z,19.69
2023-03-08T06:42:41.786Z,19.67
2023-03-08T06:45:15.598Z,19.29
2023-03-08T06:47:43.459Z,19.23
2023-03-08T06:50:16.726Z,19.69
2023-03-08T06:52:51.688Z,19.35
2023-03-08T06:55:38.779Z,19.60
2023-03-08T06:58:07.011Z,19.71
2023-03-08T07:00:35.742Z,19.51
2023-03-08T07:03:03.462Z,19.69
2023-03-08T07:05:31.537Z,19.75
2023-03-08T07:07:59.291Z,19.67
2023-03-08T07:10:27.338Z,19.28
2023-03-08T07:12:56.248Z,19.24
2023-03-08T07:15:24.980Z,19.62
2023-03-08T07:17:57.449Z,19.72
2023-03-08T07:20:27.878Z,19.58
2023-03-08T07:22:55.847Z,19.70
2023-03-08T07:25:23.747Z,19.18
2023-03-08T07:27:51.914Z,19.66
2023-03-08T07:30:20.579Z,19.33
2023-03-08T07:32:49.079Z,19.57
2023-03-08T07:35:18.234Z,19.29
2023-03-08T07:37:48.053Z,19.41
2023-03-08T07:40:17.674Z,18.81
2023-03-08T07:42:46.197Z,19.63
2023-03-08T07:45:29.036Z,19.65
2023-03-08T07:47:57.026Z,19.62
2023-03-08T07:50:26.031Z,19.73
2023-03-08T07:52:53.800Z,19.58
2023-03-08T07:55:24.726Z,19.59
2023-03-08T07:57:52.606Z,19.47
2023-03-08T08:00:21.129Z,19.63
2023-03-08T08:02:49.096Z,19.46
2023-03-08T08:05:17.148Z,19.72
2023-03-08T08:07:47.095Z,19.61
2023-03-08T08:10:14.935Z,19.69
2023-03-08T08:12:42.659Z,19.64
2023-03-08T08:15:11.281Z,19.75
2023-03-08T08:17:39.102Z,19.77
2023-03-08T08:20:08.384Z,19.60
2023-03-08T08:22:37.429Z,19.55
2023-03-08T08:25:06.885Z,19.84
2023-03-08T08:27:36.197Z,19.84
2023-03-08T08:30:07.861Z,19.85
2023-03-08T08:32:35.872Z,19.68
2023-03-08T08:35:05.034Z,19.46
2023-03-08T08:37:33.357Z,19.84
2023-03-08T08:40:01.225Z,19.87
2023-03-08T08:42:29.477Z,19.87
2023-03-08T08:44:57.438Z,19.66
2023-03-08T08:47:25.349Z,19.81
2023-03-08T08:49:53.269Z,19.93
2023-03-08T08:52:21.334Z,19.74
2023-03-08T08:54:49.221Z,19.95
2023-03-08T08:57:17.043Z,19.66
2023-03-08T08:59:45.185Z,19.96
2023-03-08T09:02:14.895Z,19.97
2023-03-08T09:04:43.424Z,19.82
2023-03-08T09:07:11.347Z,20.01
2023-03-08T09:09:39.126Z,19.87
2023-03-08T09:12:07.327Z,20.06
2023-03-08T09:14:35.631Z,20.08
2023-03-08T09:17:06.847Z,20.11
2023-03-08T09:19:36.704Z,20.06
2023-03-08T09:22:05.947Z,18.74
2023-03-08T09:24:34.041Z,20.09
2023-03-08T09:27:02.029Z,20.15
2023-03-08T09:29:29.797Z,19.82
2023-03-08T09:31:58.721Z,20.15
2023-03-08T09:34:28.586Z,20.15
2023-03-08T09:36:56.630Z,20.08
2023-03-08T09:39:24.486Z,19.82
2023-03-08T09:42:01.957Z,20.06
2023-03-08T09:44:52.224Z,20.16
2023-03-08T09:47:29.794Z,20.18
2023-03-08T09:50:12.991Z,20.19
2023-03-08T09:52:50.643Z,20.19
2023-03-08T09:55:28.540Z,20.20
2023-03-08T09:58:10.848Z,20.25
2023-03-08T10:00:38.932Z,20.26
2023-03-08T10:03:21.721Z,20.26
2023-03-08T10:06:13.931Z,19.96
2023-03-08T10:08:57.227Z,19.99
2023-03-08T10:11:40.980Z,20.31
2023-03-08T10:14:24.433Z,20.32
2023-03-08T10:17:00.563Z,20.34
2023-03-08T10:19:39.815Z,20.27
2023-03-08T10:22:34.405Z,20.35
2023-03-08T10:25:16.301Z,20.26
2023-03-08T10:27:48.509Z,20.32
2023-03-08T10:30:19.771Z,20.43
2023-03-08T10:32:52.245Z,20.00
2023-03-08T10:35:36.742Z,20.07
2023-03-08T10:38:06.691Z,20.32
2023-03-08T10:40:34.690Z,20.54
2023-03-08T10:43:06.790Z,20.57
2023-03-08T10:45:34.622Z,20.60
2023-03-08T10:48:06.835Z,20.52
2023-03-08T10:50:37.310Z,20.64
2023-03-08T10:53:18.257Z,20.67
2023-03-08T10:55:53.411Z,20.64
2023-03-08T10:58:39.781Z,20.62
2023-03-08T11:01:25.207Z,20.48
2023-03-08T11:04:06.210Z,20.80
2023-03-08T11:06:37.902Z,20.82
2023-03-08T11:09:21.634Z,20.82
2023-03-08T11:11:49.508Z,20.58
2023-03-08T11:14:17.712Z,20.60
2023-03-08T11:17:05.892Z,20.80
2023-03-08T11:20:00.165Z,20.91
2023-03-08T11:22:51.294Z,20.98
2023-03-08T11:25:33.944Z,21.01
2023-03-08T11:28:26.585Z,21.05
2023-03-08T11:31:16.167Z,21.13
2023-03-08T11:33:56.616Z,21.17
2023-03-08T11:36:46.652Z,21.13
2023-03-08T11:39:27.128Z,21.22
2023-03-08T11:42:10.971Z,21.24
2023-03-08T11:45:00.355Z,20.36
2023-03-08T11:47:48.312Z,21.27
2023-03-08T11:50:23.563Z,21.29
2023-03-08T11:53:20.520Z,21.25
2023-03-08T11:56:02.676Z,21.10
2023-03-08T11:58:58.363Z,21.32
2023-03-08T12:01:32.961Z,21.22
2023-03-08T12:04:10.395Z,21.31
2023-03-08T12:06:46.770Z,21.23
2023-03-08T12:09:17.991Z,21.31
2023-03-08T12:11:51.616Z,21.17
2023-03-08T12:14:30.562Z,21.32
2023-03-08T12:17:14.394Z,21.34
2023-03-08T12:19:46.534Z,21.32
2023-03-08T12:22:47.325Z,21.31
2023-03-08T12:25:23.151Z,21.36
2023-03-08T12:28:17.702Z,21.35
2023-03-08T12:31:04.200Z,21.36
2023-03-08T12:33:33.694Z,21.37
2023-03-08T12:36:04.768Z,21.29
2023-03-08T12:38:36.834Z,21.20
2023-03-08T12:41:07.754Z,21.28
2023-03-08T12:43:36.492Z,21.24
2023-03-08T12:46:08.000Z,21.44
2023-03-08T12:48:41.324Z,21.45
2023-03-08T12:51:12.071Z,21.49
2023-03-08T12:53:53.783Z,21.50
2023-03-08T12:56:51.488Z,21.54
2023-03-08T12:59:21.215Z,21.55
2023-03-08T13:01:58.273Z,21.58
2023-03-08T13:04:41.793Z,21.58
2023-03-08T13:07:22.955Z,21.58
2023-03-08T13:09:59.511Z,21.41
2023-03-08T13:12:41.363Z,21.50
2023-03-08T13:15:23.290Z,21.43
2023-03-08T13:17:59.675Z,21.63
2023-03-08T13:20:48.393Z,21.55
2023-03-08T13:23:16.289Z,21.66
2023-03-08T13:25:58.326Z,21.36
2023-03-08T13:28:46.158Z,21.60
2023-03-08T13:33:52.347Z,21.75
2023-03-08T13:36:22.909Z,21.27
2023-03-08T13:38:59.986Z,21.74
2023-03-08T13:41:41.549Z,21.75
2023-03-08T13:44:27.464Z,21.71
2023-03-08T13:46:58.321Z,21.76
2023-03-08T13:49:32.730Z,21.48
2023-03-08T13:52:03.414Z,21.58
2023-03-08T13:54:35.558Z,21.69
2023-03-08T13:57:18.986Z,21.80
2023-03-08T13:59:51.308Z,21.83
2023-03-08T14:02:31.013Z,21.76
2023-03-08T14:04:59.283Z,21.84
2023-03-08T14:07:29.926Z,21.86
2023-03-08T14:09:58.701Z,21.87
2023-03-08T14:12:35.113Z,21.46
2023-03-08T14:15:05.885Z,21.69
2023-03-08T14:17:36.193Z,21.87
2023-03-08T14:20:21.018Z,21.67
2023-03-08T14:22:52.825Z,21.84
2023-03-08T14:25:23.921Z,21.76
2023-03-08T14:27:53.007Z,21.91
2023-03-08T14:30:32.575Z,21.77
2023-03-08T14:33:04.308Z,21.02
2023-03-08T14:35:38.711Z,21.89
2023-03-08T14:38:24.204Z,21.93
2023-03-08T14:40:53.130Z,21.86
2023-03-08T14:43:24.144Z,21.94
2023-03-08T14:46:03.021Z,21.69
2023-03-08T14:48:36.305Z,21.93
2023-03-08T14:51:19.966Z,21.94
2023-03-08T14:54:08.922Z,21.94
2023-03-08T14:56:36.745Z,20.96
2023-03-08T14:59:05.758Z,21.87
2023-03-08T15:01:36.546Z,21.65
2023-03-08T15:04:16.042Z,21.96
2023-03-08T15:06:44.913Z,21.65
2023-03-08T15:09:17.026Z,21.94
2023-03-08T15:11:48.673Z,21.83
2023-03-08T15:14:16.453Z,21.93
2023-03-08T15:16:44.899Z,21.86
2023-03-08T15:19:14.154Z,21.85
2023-03-08T15:21:42.320Z,21.79
2023-03-08T15:24:17.909Z,21.96
2023-03-08T15:26:46.091Z,21.95
2023-03-08T15:29:31.866Z,21.91
2023-03-08T15:32:00.309Z,21.94
2023-03-08T15:34:28.894Z,21.85
2023-03-08T15:36:56.791Z,21.83
2023-03-08T15:39:24.876Z,21.94
2023-03-08T15:41:54.761Z,21.94
2023-03-08T15:44:23.016Z,21.16
2023-03-08T15:46:52.839Z,21.59
2023-03-08T15:49:20.851Z,21.53
2023-03-08T15:51:48.737Z,21.81
2023-03-08T15:54:16.477Z,21.88
2023-03-08T15:56:44.213Z,21.94
2023-03-08T15:59:12.241Z,21.70
2023-03-08T16:01:40.159Z,21.57
2023-03-08T16:04:08.031Z,21.67
2023-03-08T16:06:35.756Z,21.54
2023-03-08T16:09:03.565Z,21.93
2023-03-08T16:14:00.711Z,21.93
2023-03-08T16:16:42.524Z,21.36
2023-03-08T16:19:12.804Z,21.90
2023-03-08T16:21:40.660Z,21.94
2023-03-08T16:24:08.513Z,21.43
2023-03-08T16:26:36.463Z,21.95
2023-03-08T16:29:04.628Z,21.97
2023-03-08T16:31:33.771Z,21.84
2023-03-08T16:34:06.152Z,21.88
2023-03-08T16:36:34.002Z,21.82
2023-03-08T16:39:01.754Z,21.76
2023-03-08T16:41:30.249Z,21.92
2023-03-08T16:43:58.289Z,21.67
2023-03-08T16:46:26.130Z,21.50
2023-03-08T16:48:55.260Z,21.56
2023-03-08T16:51:25.530Z,21.86
2023-03-08T16:53:54.432Z,21.87
2023-03-08T16:56:30.462Z,21.44
2023-03-08T16:59:00.163Z,21.59
2023-03-08T17:01:29.358Z,21.83
2023-03-08T17:03:57.944Z,21.75
2023-03-08T17:06:29.864Z,21.30
2023-03-08T17:11:31.376Z,21.40
2023-03-08T17:14:01.909Z,21.60
2023-03-08T17:16:32.345Z,21.56
2023-03-08T17:19:02.207Z,21.15
2023-03-08T17:21:31.508Z,21.65
2023-03-08T17:24:00.088Z,21.65
2023-03-08T17:26:27.792Z,21.37
2023-03-08T17:28:55.817Z,21.50
2023-03-08T17:31:23.909Z,20.63
2023-03-08T17:33:52.379Z,21.59
2023-03-08T17:36:20.900Z,21.26
2023-03-08T17:38:48.837Z,21.57
2023-03-08T17:41:16.726Z,21.56
2023-03-08T17:43:44.503Z,21.42
2023-03-08T17:46:13.665Z,20.86
2023-03-08T17:48:42.222Z,21.58
2023-03-08T17:51:15.931Z,21.58
2023-03-08T17:53:45.466Z,21.50
2023-03-08T17:56:16.425Z,21.49
2023-03-08T17:58:44.407Z,21.60
2023-03-08T18:01:13.859Z,21.59
2023-03-08T18:03:41.869Z,21.24
2023-03-08T18:06:27.368Z,21.06
2023-03-08T18:08:56.759Z,21.36
2023-03-08T18:11:25.383Z,21.47
2023-03-08T18:13:53.884Z,21.22
2023-03-08T18:16:23.025Z,20.86
2023-03-08T18:18:51.031Z,21.43
2023-03-08T18:21:20.486Z,21.41
2023-03-08T18:23:48.700Z,21.06
2023-03-08T18:26:18.567Z,21.38
2023-03-08T18:28:47.460Z,21.36
2023-03-08T18:31:23.289Z,21.37
2023-03-08T18:33:52.942Z,20.99
2023-03-08T18:36:22.878Z,21.06
2023-03-08T18:38:51.027Z,21.19
2023-03-08T18:41:22.475Z,21.36
2023-03-08T18:43:51.404Z,21.36
2023-03-08T18:46:19.786Z,21.36
2023-03-08T18:48:52.245Z,21.37
2023-03-08T18:51:21.337Z,21.12
2023-03-08T18:53:49.514Z,21.37
2023-03-08T18:56:17.425Z,20.98
2023-03-08T18:58:45.264Z,21.13
2023-03-08T19:01:15.519Z,21.20
2023-03-08T19:03:44.176Z,21.07
2023-03-08T19:06:13.755Z,21.22
2023-03-08T19:08:42.563Z,21.14
2023-03-08T19:11:18.307Z,21.25
2023-03-08T19:13:48.738Z,21.14
2023-03-08T19:16:26.841Z,21.37
2023-03-08T19:18:57.281Z,21.34
2023-03-08T19:21:28.675Z,21.04
2023-03-08T19:23:57.923Z,21.18
2023-03-08T19:26:37.380Z,21.40
2023-03-08T19:29:08.379Z,21.41
2023-03-08T19:31:39.456Z,21.42
2023-03-08T19:34:08.250Z,21.43
2023-03-08T19:36:41.672Z,21.44
2023-03-08T19:39:12.970Z,21.43
2023-03-08T19:41:41.210Z,21.22
2023-03-08T19:44:11.218Z,20.97
2023-03-08T19:46:40.753Z,21.44
2023-03-08T19:49:12.278Z,21.45
2023-03-08T19:51:40.782Z,20.49
2023-03-08T19:54:09.116Z,21.19
2023-03-08T19:56:37.610Z,21.46
2023-03-08T19:59:05.973Z,21.09
2023-03-08T20:01:34.554Z,21.50
2023-03-08T20:04:02.315Z,21.26
2023-03-08T20:06:33.885Z,21.33
2023-03-08T20:09:03.439Z,21.46
2023-03-08T20:11:31.372Z,21.46
2023-03-08T20:13:59.444Z,21.31
2023-03-08T20:16:27.740Z,21.13
2023-03-08T20:18:57.574Z,21.45
2023-03-08T20:21:29.814Z,21.23
2023-03-08T20:23:59.697Z,21.34
2023-03-08T20:26:31.715Z,21.44
2023-03-08T20:29:00.441Z,20.65
2023-03-08T20:31:30.241Z,21.41
2023-03-08T20:33:58.746Z,21.42
2023-03-08T20:36:28.812Z,21.35
2023-03-08T20:38:58.799Z,21.38
2023-03-08T20:41:26.629Z,20.86
2023-03-08T20:43:57.711Z,21.23
2023-03-08T20:46:31.328Z,21.30
2023-03-08T20:49:01.552Z,21.27
2023-03-08T20:51:29.515Z,21.19
2023-03-08T20:53:57.853Z,20.79
2023-03-08T20:56:26.878Z,21.08
2023-03-08T20:58:57.448Z,21.05
2023-03-08T21:01:28.539Z,21.22
2023-03-08T21:03:56.930Z,21.19
2023-03-08T21:06:27.349Z,21.20
2023-03-08T21:08:55.385Z,21.20
2023-03-08T21:11:23.709Z,21.21
2023-03-08T21:13:53.125Z,21.17
2023-03-08T21:16:22.451Z,21.00
2023-03-08T21:18:57.253Z,21.15
2023-03-08T21:21:36.209Z,21.09
2023-03-08T21:24:07.453Z,21.22
2023-03-08T21:26:35.814Z,21.31
2023-03-08T21:29:07.257Z,21.03
2023-03-08T21:31:39.723Z,21.29
2023-03-08T21:34:08.942Z,21.18
2023-03-08T21:36:38.137Z,20.86
2023-03-08T21:39:07.147Z,21.27
2023-03-08T21:41:39.210Z,21.26
2023-03-08T21:44:11.475Z,21.10
2023-03-08T21:46:41.093Z,20.99
2023-03-08T21:49:16.488Z,20.68
2023-03-08T21:51:44.572Z,21.28
2023-03-08T21:54:12.503Z,21.17
2023-03-08T21:56:40.313Z,20.51
2023-03-08T21:59:08.370Z,20.89
2023-03-08T22:01:37.052Z,20.43
2023-03-08T22:04:06.462Z,20.53
2023-03-08T22:06:34.281Z,21.23
2023-03-08T22:09:02.657Z,21.12
2023-03-08T22:11:31.044Z,20.97
2023-03-08T22:14:01.590Z,21.39
2023-03-08T22:16:31.361Z,20.75
2023-03-08T22:19:01.636Z,21.42
2023-03-08T22:21:29.667Z,21.42
2023-03-08T22:24:00.335Z,21.18
2023-03-08T22:26:29.112Z,21.16
2023-03-08T22:28:58.157Z,21.42
2023-03-08T22:31:27.335Z,21.39
2023-03-08T22:33:55.548Z,21.33
2023-03-08T22:36:23.683Z,21.19
2023-03-08T22:38:51.603Z,21.36
2023-03-08T22:41:24.336Z,21.37
2023-03-08T22:43:52.539Z,21.21
2023-03-08T22:46:23.146Z,21.34
2023-03-08T22:48:52.641Z,21.22
2023-03-08T22:51:22.047Z,21.32
2023-03-08T22:53:50.681Z,21.32
2023-03-08T22:56:25.371Z,20.80
2023-03-08T22:58:53.649Z,20.39
2023-03-08T23:01:23.445Z,21.26
2023-03-08T23:03:55.317Z,21.22
2023-03-08T23:06:28.711Z,20.74
2023-03-08T23:09:01.362Z,21.11
2023-03-08T23:11:29.378Z,21.30
2023-03-08T23:13:57.227Z,21.20
2023-03-08T23:16:25.816Z,21.32
2023-03-08T23:18:54.100Z,21.16
2023-03-08T23:21:23.633Z,21.35
2023-03-08T23:23:51.359Z,20.99
2023-03-08T23:26:21.761Z,21.42
2023-03-08T23:28:49.937Z,21.32
2023-03-08T23:31:20.096Z,21.38
2023-03-08T23:33:49.195Z,21.36
2023-03-08T23:36:19.577Z,21.48
2023-03-08T23:38:47.694Z,21.33
2023-03-08T23:41:16.532Z,21.45
2023-03-08T23:43:45.128Z,21.00
2023-03-08T23:46:19.012Z,21.40
2023-03-08T23:48:48.607Z,20.90
2023-03-08T23:51:20.853Z,21.14
2023-03-08T23:53:50.481Z,21.31
2023-03-08T23:56:27.260Z,21.57
2023-03-08T23:58:56.935Z,21.16
